sensor_id;sensor_type;location;lat;lon;timestamp;temperature;humidity
17399;DHT22;8817;48.170;8.592;2023-02-15T00:00:30;8.80;43.80
17399;DHT22;8817;48.170;8.592;2023-02-15T00:02:57;8.80;44.40
17399;DHT22;8817;48.170;8.592;2023-02-15T00:05:24;8.80;43.80
17399;DHT22;8817;48.170;8.592;2023-02-15T00:07:52;8.80;43.80
17399;DHT22;8817;48.170;8.592;2023-02-15T00:10:19;8.80;43.80
17399;DHT22;8817;48.170;8.592;2023-02-15T00:12:46;8.80;43.80
17399;DHT22;8817;48.170;8.592;2023-02-15T00:15:12;8.80;43.80
17399;DHT22;8817;48.170;8.592;2023-02-15T00:17:39;8.70;43.70
17399;DHT22;8817;48.170;8.592;2023-02-15T00:20:07;8.80;44.40
17399;DHT22;8817;48.170;8.592;2023-02-15T00:22:34;8.70;43.70
17399;DHT22;8817;48.170;8.592;2023-02-15T00:25:02;8.70;43.70
17399;DHT22;8817;48.170;8.592;2023-02-15T00:27:29;8.70;43.70
17399;DHT22;8817;48.170;8.592;2023-02-15T00:29:56;8.60;43.70
17399;DHT22;8817;48.170;8.592;2023-02-15T00:32:23;8.60;43.70
17399;DHT22;8817;48.170;8.592;2023-02-15T00:34:50;8.60;43.70
17399;DHT22;8817;48.170;8.592;2023-02-15T00:37:17;8.60;43.70
17399;DHT22;8817;48.170;8.592;2023-02-15T00:39:44;8.50;43.60
17399;DHT22;8817;48.170;8.592;2023-02-15T00:42:12;8.50;43.60
17399;DHT22;8817;48.170;8.592;2023-02-15T00:44:39;8.50;43.70
17399;DHT22;8817;48.170;8.592;2023-02-15T00:47:06;8.50;43.70
17399;DHT22;8817;48.170;8.592;2023-02-15T00:49:32;8.50;43.70
17399;DHT22;8817;48.170;8.592;2023-02-15T00:51:59;8.40;43.70
17399;DHT22;8817;48.170;8.592;2023-02-15T00:54:26;8.40;43.70
17399;DHT22;8817;48.170;8.592;2023-02-15T00:56:53;8.40;43.70
17399;DHT22;8817;48.170;8.592;2023-02-15T00:59:21;8.40;43.70
17399;DHT22;8817;48.170;8.592;2023-02-15T01:01:48;8.40;43.70
17399;DHT22;8817;48.170;8.592;2023-02-15T01:04:15;8.40;43.70
17399;DHT22;8817;48.170;8.592;2023-02-15T01:06:42;8.40;43.70
17399;DHT22;8817;48.170;8.592;2023-02-15T01:09:09;8.40;43.70
17399;DHT22;8817;48.170;8.592;2023-02-15T01:11:36;8.40;43.70
17399;DHT22;8817;48.170;8.592;2023-02-15T01:14:02;8.30;43.60
17399;DHT22;8817;48.170;8.592;2023-02-15T01:16:32;8.30;43.60
17399;DHT22;8817;48.170;8.592;2023-02-15T01:18:59;8.30;43.60
17399;DHT22;8817;48.170;8.592;2023-02-15T01:21:28;8.30;43.60
17399;DHT22;8817;48.170;8.592;2023-02-15T01:23:54;8.20;43.50
17399;DHT22;8817;48.170;8.592;2023-02-15T01:26:21;8.20;43.50
17399;DHT22;8817;48.170;8.592;2023-02-15T01:28:48;8.10;43.50
17399;DHT22;8817;48.170;8.592;2023-02-15T01:31:17;8.10;43.50
17399;DHT22;8817;48.170;8.592;2023-02-15T01:33:46;8.10;43.50
17399;DHT22;8817;48.170;8.592;2023-02-15T01:36:14;8.10;43.50
17399;DHT22;8817;48.170;8.592;2023-02-15T01:38:42;8.10;43.60
17399;DHT22;8817;48.170;8.592;2023-02-15T01:41:09;8.00;43.50
17399;DHT22;8817;48.170;8.592;2023-02-15T01:43:51;8.00;43.50
17399;DHT22;8817;48.170;8.592;2023-02-15T01:46:22;8.00;43.50
17399;DHT22;8817;48.170;8.592;2023-02-15T01:48:54;8.00;43.50
17399;DHT22;8817;48.170;8.592;2023-02-15T01:51:23;7.90;43.40
17399;DHT22;8817;48.170;8.592;2023-02-15T01:53:55;7.90;43.50
17399;DHT22;8817;48.170;8.592;2023-02-15T01:56:25;7.80;44.00
17399;DHT22;8817;48.170;8.592;2023-02-15T01:58:55;7.80;43.40
17399;DHT22;8817;48.170;8.592;2023-02-15T02:01:24;7.80;43.50
17399;DHT22;8817;48.170;8.592;2023-02-15T02:03:59;7.70;43.40
17399;DHT22;8817;48.170;8.592;2023-02-15T02:06:27;7.70;43.40
17399;DHT22;8817;48.170;8.592;2023-02-15T02:08:54;7.70;43.40
17399;DHT22;8817;48.170;8.592;2023-02-15T02:11:22;7.70;43.50
17399;DHT22;8817;48.170;8.592;2023-02-15T02:13:50;7.60;43.40
17399;DHT22;8817;48.170;8.592;2023-02-15T02:16:22;7.60;43.40
17399;DHT22;8817;48.170;8.592;2023-02-15T02:25:02;7.50;43.40
17399;DHT22;8817;48.170;8.592;2023-02-15T02:27:37;7.50;43.40
17399;DHT22;8817;48.170;8.592;2023-02-15T02:30:49;7.40;43.40
17399;DHT22;8817;48.170;8.592;2023-02-15T02:33:35;7.40;43.50
17399;DHT22;8817;48.170;8.592;2023-02-15T02:36:12;7.40;43.50
17399;DHT22;8817;48.170;8.592;2023-02-15T02:38:48;7.30;43.50
17399;DHT22;8817;48.170;8.592;2023-02-15T02:41:24;7.40;43.70
17399;DHT22;8817;48.170;8.592;2023-02-15T02:44:01;7.40;43.80
17399;DHT22;8817;48.170;8.592;2023-02-15T02:46:33;7.40;43.80
17399;DHT22;8817;48.170;8.592;2023-02-15T02:49:04;7.40;43.80
17399;DHT22;8817;48.170;8.592;2023-02-15T02:51:31;7.40;43.80
17399;DHT22;8817;48.170;8.592;2023-02-15T02:54:01;7.40;43.80
17399;DHT22;8817;48.170;8.592;2023-02-15T02:56:35;7.50;43.90
17399;DHT22;8817;48.170;8.592;2023-02-15T02:59:06;7.50;43.90
17399;DHT22;8817;48.170;8.592;2023-02-15T03:01:37;7.50;43.90
17399;DHT22;8817;48.170;8.592;2023-02-15T03:04:10;7.50;43.90
17399;DHT22;8817;48.170;8.592;2023-02-15T03:06:42;7.50;43.90
17399;DHT22;8817;48.170;8.592;2023-02-15T03:09:15;7.50;43.90
17399;DHT22;8817;48.170;8.592;2023-02-15T03:11:46;7.60;43.90
17399;DHT22;8817;48.170;8.592;2023-02-15T03:14:14;7.70;44.00
17399;DHT22;8817;48.170;8.592;2023-02-15T03:16:44;7.70;44.00
17399;DHT22;8817;48.170;8.592;2023-02-15T03:19:15;7.70;43.90
17399;DHT22;8817;48.170;8.592;2023-02-15T03:21:48;7.70;43.90
17399;DHT22;8817;48.170;8.592;2023-02-15T03:24:25;7.70;43.90
17399;DHT22;8817;48.170;8.592;2023-02-15T03:26:54;7.70;43.80
17399;DHT22;8817;48.170;8.592;2023-02-15T03:29:24;7.70;43.80
17399;DHT22;8817;48.170;8.592;2023-02-15T03:31:56;7.70;43.80
17399;DHT22;8817;48.170;8.592;2023-02-15T03:34:26;7.70;43.80
17399;DHT22;8817;48.170;8.592;2023-02-15T03:36:58;7.70;43.80
17399;DHT22;8817;48.170;8.592;2023-02-15T03:39:30;7.70;43.80
17399;DHT22;8817;48.170;8.592;2023-02-15T03:42:04;7.70;43.80
17399;DHT22;8817;48.170;8.592;2023-02-15T03:44:40;7.70;43.80
17399;DHT22;8817;48.170;8.592;2023-02-15T03:47:13;7.70;43.80
17399;DHT22;8817;48.170;8.592;2023-02-15T03:49:47;7.70;43.80
17399;DHT22;8817;48.170;8.592;2023-02-15T03:52:16;7.70;43.80
17399;DHT22;8817;48.170;8.592;2023-02-15T03:54:43;7.70;43.80
17399;DHT22;8817;48.170;8.592;2023-02-15T03:57:15;7.70;43.80
17399;DHT22;8817;48.170;8.592;2023-02-15T04:00:00;7.70;44.40
17399;DHT22;8817;48.170;8.592;2023-02-15T04:03:12;7.70;43.80
17399;DHT22;8817;48.170;8.592;2023-02-15T04:05:44;7.70;44.40
17399;DHT22;8817;48.170;8.592;2023-02-15T04:08:12;7.70;43.80
17399;DHT22;8817;48.170;8.592;2023-02-15T04:10:39;7.70;43.80
17399;DHT22;8817;48.170;8.592;2023-02-15T04:13:23;7.70;43.80
17399;DHT22;8817;48.170;8.592;2023-02-15T04:15:50;7.70;43.80
17399;DHT22;8817;48.170;8.592;2023-02-15T04:18:32;7.70;44.30
17399;DHT22;8817;48.170;8.592;2023-02-15T04:21:19;7.70;43.80
17399;DHT22;8817;48.170;8.592;2023-02-15T04:24:04;7.70;43.80
17399;DHT22;8817;48.170;8.592;2023-02-15T04:26:49;7.70;43.80
17399;DHT22;8817;48.170;8.592;2023-02-15T04:29:18;7.70;43.80
17399;DHT22;8817;48.170;8.592;2023-02-15T04:31:45;7.60;43.70
17399;DHT22;8817;48.170;8.592;2023-02-15T04:34:13;7.70;43.70
17399;DHT22;8817;48.170;8.592;2023-02-15T04:36:41;7.60;43.70
17399;DHT22;8817;48.170;8.592;2023-02-15T04:39:09;7.60;43.60
17399;DHT22;8817;48.170;8.592;2023-02-15T04:41:36;7.60;43.70
17399;DHT22;8817;48.170;8.592;2023-02-15T04:44:03;7.60;43.70
17399;DHT22;8817;48.170;8.592;2023-02-15T04:46:30;7.60;43.60
17399;DHT22;8817;48.170;8.592;2023-02-15T04:48:57;7.50;43.70
17399;DHT22;8817;48.170;8.592;2023-02-15T04:51:24;7.50;43.60
17399;DHT22;8817;48.170;8.592;2023-02-15T04:53:53;7.50;43.70
17399;DHT22;8817;48.170;8.592;2023-02-15T04:56:20;7.50;43.70
17399;DHT22;8817;48.170;8.592;2023-02-15T04:58:47;7.50;43.70
17399;DHT22;8817;48.170;8.592;2023-02-15T05:01:15;7.40;43.60
17399;DHT22;8817;48.170;8.592;2023-02-15T05:03:42;7.40;43.60
17399;DHT22;8817;48.170;8.592;2023-02-15T05:06:09;7.40;43.60
17399;DHT22;8817;48.170;8.592;2023-02-15T05:08:36;7.40;43.60
17399;DHT22;8817;48.170;8.592;2023-02-15T05:11:04;7.40;43.70
17399;DHT22;8817;48.170;8.592;2023-02-15T05:13:31;7.40;43.70
17399;DHT22;8817;48.170;8.592;2023-02-15T05:15:57;7.40;43.60
17399;DHT22;8817;48.170;8.592;2023-02-15T05:18:24;7.40;43.60
17399;DHT22;8817;48.170;8.592;2023-02-15T05:20:51;7.40;43.60
17399;DHT22;8817;48.170;8.592;2023-02-15T05:23:18;7.40;43.60
17399;DHT22;8817;48.170;8.592;2023-02-15T05:25:49;7.30;43.60
17399;DHT22;8817;48.170;8.592;2023-02-15T05:28:36;7.40;43.60
17399;DHT22;8817;48.170;8.592;2023-02-15T05:31:07;7.30;43.50
17399;DHT22;8817;48.170;8.592;2023-02-15T05:33:36;7.30;43.50
17399;DHT22;8817;48.170;8.592;2023-02-15T05:36:03;7.30;43.50
17399;DHT22;8817;48.170;8.592;2023-02-15T05:38:31;7.30;43.60
17399;DHT22;8817;48.170;8.592;2023-02-15T05:40:57;7.30;43.50
17399;DHT22;8817;48.170;8.592;2023-02-15T05:43:25;7.20;43.50
17399;DHT22;8817;48.170;8.592;2023-02-15T05:45:54;7.20;43.60
17399;DHT22;8817;48.170;8.592;2023-02-15T05:48:24;7.10;43.60
17399;DHT22;8817;48.170;8.592;2023-02-15T05:50:57;7.10;43.60
17399;DHT22;8817;48.170;8.592;2023-02-15T05:53:24;7.10;43.60
17399;DHT22;8817;48.170;8.592;2023-02-15T05:55:51;7.10;43.50
17399;DHT22;8817;48.170;8.592;2023-02-15T05:58:19;7.10;43.50
17399;DHT22;8817;48.170;8.592;2023-02-15T06:00:46;7.00;43.50
17399;DHT22;8817;48.170;8.592;2023-02-15T06:03:14;7.10;43.60
17399;DHT22;8817;48.170;8.592;2023-02-15T06:05:41;7.10;43.60
17399;DHT22;8817;48.170;8.592;2023-02-15T06:08:08;7.10;43.60
17399;DHT22;8817;48.170;8.592;2023-02-15T06:10:35;7.10;44.20
17399;DHT22;8817;48.170;8.592;2023-02-15T06:13:02;7.00;43.60
17399;DHT22;8817;48.170;8.592;2023-02-15T06:15:29;7.00;43.60
17399;DHT22;8817;48.170;8.592;2023-02-15T06:17:56;7.00;43.50
17399;DHT22;8817;48.170;8.592;2023-02-15T06:20:24;7.00;43.50
17399;DHT22;8817;48.170;8.592;2023-02-15T06:22:51;6.90;43.40
17399;DHT22;8817;48.170;8.592;2023-02-15T06:25:18;6.90;43.40
17399;DHT22;8817;48.170;8.592;2023-02-15T06:27:45;6.90;43.40
17399;DHT22;8817;48.170;8.592;2023-02-15T06:30:13;6.90;43.40
17399;DHT22;8817;48.170;8.592;2023-02-15T06:32:40;6.80;43.90
17399;DHT22;8817;48.170;8.592;2023-02-15T06:35:07;6.80;43.40
17399;DHT22;8817;48.170;8.592;2023-02-15T06:37:35;6.80;43.40
17399;DHT22;8817;48.170;8.592;2023-02-15T06:40:03;6.80;43.40
17399;DHT22;8817;48.170;8.592;2023-02-15T06:42:30;6.70;43.40
17399;DHT22;8817;48.170;8.592;2023-02-15T06:44:57;6.70;43.50
17399;DHT22;8817;48.170;8.592;2023-02-15T06:47:25;6.70;43.50
17399;DHT22;8817;48.170;8.592;2023-02-15T06:49:52;6.60;43.50
17399;DHT22;8817;48.170;8.592;2023-02-15T06:52:19;6.70;43.60
17399;DHT22;8817;48.170;8.592;2023-02-15T06:54:47;6.70;43.60
17399;DHT22;8817;48.170;8.592;2023-02-15T06:57:14;6.60;43.70
17399;DHT22;8817;48.170;8.592;2023-02-15T06:59:41;6.70;43.70
17399;DHT22;8817;48.170;8.592;2023-02-15T07:02:08;6.70;43.80
17399;DHT22;8817;48.170;8.592;2023-02-15T07:04:35;6.70;43.80
17399;DHT22;8817;48.170;8.592;2023-02-15T07:07:02;6.70;43.80
17399;DHT22;8817;48.170;8.592;2023-02-15T07:09:29;6.70;43.90
17399;DHT22;8817;48.170;8.592;2023-02-15T07:11:57;6.80;44.00
17399;DHT22;8817;48.170;8.592;2023-02-15T07:14:42;6.80;44.00
17399;DHT22;8817;48.170;8.592;2023-02-15T07:17:08;6.80;44.00
17399;DHT22;8817;48.170;8.592;2023-02-15T07:19:35;6.90;44.10
17399;DHT22;8817;48.170;8.592;2023-02-15T07:22:02;6.90;44.10
17399;DHT22;8817;48.170;8.592;2023-02-15T07:24:30;7.00;44.20
17399;DHT22;8817;48.170;8.592;2023-02-15T07:26:58;7.00;44.20
17399;DHT22;8817;48.170;8.592;2023-02-15T07:29:25;7.10;44.30
17399;DHT22;8817;48.170;8.592;2023-02-15T07:31:52;7.10;44.30
17399;DHT22;8817;48.170;8.592;2023-02-15T07:34:19;7.20;44.40
17399;DHT22;8817;48.170;8.592;2023-02-15T07:36:46;7.30;44.40
17399;DHT22;8817;48.170;8.592;2023-02-15T07:39:13;7.40;44.50
17399;DHT22;8817;48.170;8.592;2023-02-15T07:41:41;7.40;44.40
17399;DHT22;8817;48.170;8.592;2023-02-15T07:44:12;7.50;44.50
17399;DHT22;8817;48.170;8.592;2023-02-15T07:46:40;7.50;45.00
17399;DHT22;8817;48.170;8.592;2023-02-15T07:49:07;7.60;44.50
17399;DHT22;8817;48.170;8.592;2023-02-15T07:51:34;7.70;44.60
17399;DHT22;8817;48.170;8.592;2023-02-15T07:54:01;7.70;44.60
17399;DHT22;8817;48.170;8.592;2023-02-15T07:56:28;7.80;44.60
17399;DHT22;8817;48.170;8.592;2023-02-15T07:58:55;7.90;44.70
17399;DHT22;8817;48.170;8.592;2023-02-15T08:01:27;7.90;44.60
17399;DHT22;8817;48.170;8.592;2023-02-15T08:03:54;8.00;44.70
17399;DHT22;8817;48.170;8.592;2023-02-15T08:06:23;8.10;44.70
17399;DHT22;8817;48.170;8.592;2023-02-15T08:08:50;8.10;44.70
17399;DHT22;8817;48.170;8.592;2023-02-15T08:11:20;8.20;44.70
17399;DHT22;8817;48.170;8.592;2023-02-15T08:13:56;8.30;44.80
17399;DHT22;8817;48.170;8.592;2023-02-15T08:16:28;8.30;44.80
17399;DHT22;8817;48.170;8.592;2023-02-15T08:18:56;8.40;44.80
17399;DHT22;8817;48.170;8.592;2023-02-15T08:21:25;8.40;44.80
17399;DHT22;8817;48.170;8.592;2023-02-15T08:23:52;8.50;44.90
17399;DHT22;8817;48.170;8.592;2023-02-15T08:26:20;8.50;44.90
17399;DHT22;8817;48.170;8.592;2023-02-15T08:28:47;8.60;44.90
17399;DHT22;8817;48.170;8.592;2023-02-15T08:31:15;8.70;45.00
17399;DHT22;8817;48.170;8.592;2023-02-15T08:33:44;8.70;44.90
17399;DHT22;8817;48.170;8.592;2023-02-15T08:36:13;8.80;45.00
17399;DHT22;8817;48.170;8.592;2023-02-15T08:38:41;8.90;45.00
17399;DHT22;8817;48.170;8.592;2023-02-15T08:41:12;8.90;45.00
17399;DHT22;8817;48.170;8.592;2023-02-15T08:43:40;9.00;45.10
17399;DHT22;8817;48.170;8.592;2023-02-15T08:46:08;9.00;45.00
17399;DHT22;8817;48.170;8.592;2023-02-15T08:48:35;9.10;45.10
17399;DHT22;8817;48.170;8.592;2023-02-15T08:51:08;9.20;45.10
17399;DHT22;8817;48.170;8.592;2023-02-15T08:53:37;9.20;45.10
17399;DHT22;8817;48.170;8.592;2023-02-15T08:56:05;9.30;45.10
17399;DHT22;8817;48.170;8.592;2023-02-15T08:58:32;9.30;45.20
17399;DHT22;8817;48.170;8.592;2023-02-15T09:00:59;9.40;45.70
17399;DHT22;8817;48.170;8.592;2023-02-15T09:03:29;9.50;45.20
17399;DHT22;8817;48.170;8.592;2023-02-15T09:05:59;9.60;45.20
17399;DHT22;8817;48.170;8.592;2023-02-15T09:08:28;9.60;45.20
17399;DHT22;8817;48.170;8.592;2023-02-15T09:11:04;9.70;45.30
17399;DHT22;8817;48.170;8.592;2023-02-15T09:13:31;9.70;45.30
17399;DHT22;8817;48.170;8.592;2023-02-15T09:16:00;9.80;45.30
17399;DHT22;8817;48.170;8.592;2023-02-15T09:18:27;9.90;45.40
17399;DHT22;8817;48.170;8.592;2023-02-15T09:20:54;10.00;45.40
17399;DHT22;8817;48.170;8.592;2023-02-15T09:23:21;10.10;45.50
17399;DHT22;8817;48.170;8.592;2023-02-15T09:25:50;10.10;45.50
17399;DHT22;8817;48.170;8.592;2023-02-15T09:28:17;10.30;45.60
17399;DHT22;8817;48.170;8.592;2023-02-15T09:30:44;10.30;45.60
17399;DHT22;8817;48.170;8.592;2023-02-15T09:33:10;10.40;45.60
17399;DHT22;8817;48.170;8.592;2023-02-15T09:35:37;10.50;45.70
17399;DHT22;8817;48.170;8.592;2023-02-15T09:38:04;10.60;45.70
17399;DHT22;8817;48.170;8.592;2023-02-15T09:40:38;10.60;45.70
17399;DHT22;8817;48.170;8.592;2023-02-15T09:43:26;10.70;45.70
17399;DHT22;8817;48.170;8.592;2023-02-15T09:46:08;10.80;45.70
17399;DHT22;8817;48.170;8.592;2023-02-15T09:48:41;10.90;45.80
17399;DHT22;8817;48.170;8.592;2023-02-15T09:51:47;11.00;45.80
17399;DHT22;8817;48.170;8.592;2023-02-15T09:54:30;11.10;45.80
17399;DHT22;8817;48.170;8.592;2023-02-15T09:57:07;11.20;45.80
17399;DHT22;8817;48.170;8.592;2023-02-15T09:59:48;11.30;45.80
17399;DHT22;8817;48.170;8.592;2023-02-15T10:02:35;11.40;45.80
17399;DHT22;8817;48.170;8.592;2023-02-15T10:05:18;11.50;45.80
17399;DHT22;8817;48.170;8.592;2023-02-15T10:08:04;11.50;45.80
17399;DHT22;8817;48.170;8.592;2023-02-15T10:10:40;11.70;45.90
17399;DHT22;8817;48.170;8.592;2023-02-15T10:13:20;11.70;45.90
17399;DHT22;8817;48.170;8.592;2023-02-15T10:16:01;11.90;46.00
17399;DHT22;8817;48.170;8.592;2023-02-15T10:18:43;11.90;45.90
17399;DHT22;8817;48.170;8.592;2023-02-15T10:21:19;12.10;46.00
17399;DHT22;8817;48.170;8.592;2023-02-15T10:24:07;12.20;46.10
17399;DHT22;8817;48.170;8.592;2023-02-15T10:26:43;12.30;46.70
17399;DHT22;8817;48.170;8.592;2023-02-15T10:29:17;12.40;46.10
17399;DHT22;8817;48.170;8.592;2023-02-15T10:31:50;12.50;46.10
17399;DHT22;8817;48.170;8.592;2023-02-15T10:34:19;12.60;46.10
17399;DHT22;8817;48.170;8.592;2023-02-15T10:37:01;12.70;46.10
17399;DHT22;8817;48.170;8.592;2023-02-15T10:39:40;12.80;46.10
17399;DHT22;8817;48.170;8.592;2023-02-15T10:42:17;12.90;46.10
17399;DHT22;8817;48.170;8.592;2023-02-15T10:44:58;13.00;46.10
17399;DHT22;8817;48.170;8.592;2023-02-15T10:47:45;13.10;46.10
17399;DHT22;8817;48.170;8.592;2023-02-15T10:50:27;13.20;46.10
17399;DHT22;8817;48.170;8.592;2023-02-15T10:53:10;13.30;46.10
17399;DHT22;8817;48.170;8.592;2023-02-15T10:55:48;13.40;46.10
17399;DHT22;8817;48.170;8.592;2023-02-15T10:58:24;13.60;46.10
17399;DHT22;8817;48.170;8.592;2023-02-15T11:01:01;13.70;46.20
17399;DHT22;8817;48.170;8.592;2023-02-15T11:03:45;13.80;46.20
17399;DHT22;8817;48.170;8.592;2023-02-15T11:06:16;13.90;46.20
17399;DHT22;8817;48.170;8.592;2023-02-15T11:08:46;14.00;46.20
17399;DHT22;8817;48.170;8.592;2023-02-15T11:11:19;14.10;46.30
17399;DHT22;8817;48.170;8.592;2023-02-15T11:13:51;14.20;46.20
17399;DHT22;8817;48.170;8.592;2023-02-15T11:16:22;14.40;46.30
17399;DHT22;8817;48.170;8.592;2023-02-15T11:18:55;14.50;46.20
17399;DHT22;8817;48.170;8.592;2023-02-15T11:21:27;14.60;46.20
17399;DHT22;8817;48.170;8.592;2023-02-15T11:23:55;14.70;46.20
17399;DHT22;8817;48.170;8.592;2023-02-15T11:26:28;14.80;46.20
17399;DHT22;8817;48.170;8.592;2023-02-15T11:28:59;14.90;46.10
17399;DHT22;8817;48.170;8.592;2023-02-15T11:31:41;15.10;46.20
17399;DHT22;8817;48.170;8.592;2023-02-15T11:34:15;15.20;46.10
17399;DHT22;8817;48.170;8.592;2023-02-15T11:36:45;15.30;46.10
17399;DHT22;8817;48.170;8.592;2023-02-15T11:39:16;15.40;46.10
17399;DHT22;8817;48.170;8.592;2023-02-15T11:41:46;15.50;46.10
17399;DHT22;8817;48.170;8.592;2023-02-15T11:44:19;15.60;46.10
17399;DHT22;8817;48.170;8.592;2023-02-15T11:46:48;15.80;46.20
17399;DHT22;8817;48.170;8.592;2023-02-15T11:49:22;15.90;46.20
17399;DHT22;8817;48.170;8.592;2023-02-15T11:51:50;15.90;46.60
17399;DHT22;8817;48.170;8.592;2023-02-15T11:54:21;16.10;46.10
17399;DHT22;8817;48.170;8.592;2023-02-15T11:56:50;16.20;46.00
17399;DHT22;8817;48.170;8.592;2023-02-15T11:59:24;16.30;46.00
17399;DHT22;8817;48.170;8.592;2023-02-15T12:01:53;16.40;45.90
17399;DHT22;8817;48.170;8.592;2023-02-15T12:04:24;16.50;46.00
17399;DHT22;8817;48.170;8.592;2023-02-15T12:06:55;16.50;45.90
17399;DHT22;8817;48.170;8.592;2023-02-15T12:09:31;16.60;45.90
17399;DHT22;8817;48.170;8.592;2023-02-15T12:12:19;16.80;45.80
17399;DHT22;8817;48.170;8.592;2023-02-15T12:14:47;16.80;45.80
17399;DHT22;8817;48.170;8.592;2023-02-15T12:17:17;17.00;45.80
17399;DHT22;8817;48.170;8.592;2023-02-15T12:19:45;17.10;45.80
17399;DHT22;8817;48.170;8.592;2023-02-15T12:22:22;17.10;45.70
17399;DHT22;8817;48.170;8.592;2023-02-15T12:24:50;17.20;45.60
17399;DHT22;8817;48.170;8.592;2023-02-15T12:27:19;17.30;46.20
17399;DHT22;8817;48.170;8.592;2023-02-15T12:29:50;17.40;45.50
17399;DHT22;8817;48.170;8.592;2023-02-15T12:32:21;17.50;45.50
17399;DHT22;8817;48.170;8.592;2023-02-15T12:34:51;17.60;45.50
17399;DHT22;8817;48.170;8.592;2023-02-15T12:37:21;17.70;45.40
17399;DHT22;8817;48.170;8.592;2023-02-15T12:39:54;17.80;45.50
17399;DHT22;8817;48.170;8.592;2023-02-15T12:42:22;17.90;45.40
17399;DHT22;8817;48.170;8.592;2023-02-15T12:44:54;17.90;45.40
17399;DHT22;8817;48.170;8.592;2023-02-15T12:47:22;18.00;45.20
17399;DHT22;8817;48.170;8.592;2023-02-15T12:52:43;18.10;45.80
17399;DHT22;8817;48.170;8.592;2023-02-15T12:55:18;18.30;45.20
17399;DHT22;8817;48.170;8.592;2023-02-15T12:57:45;18.40;45.20
17399;DHT22;8817;48.170;8.592;2023-02-15T13:00:27;18.50;45.20
17399;DHT22;8817;48.170;8.592;2023-02-15T13:02:58;18.60;45.20
17399;DHT22;8817;48.170;8.592;2023-02-15T13:05:31;18.70;45.20
17399;DHT22;8817;48.170;8.592;2023-02-15T13:08:02;18.70;45.10
17399;DHT22;8817;48.170;8.592;2023-02-15T13:10:33;18.80;45.10
17399;DHT22;8817;48.170;8.592;2023-02-15T13:13:01;18.90;45.00
17399;DHT22;8817;48.170;8.592;2023-02-15T13:15:37;19.00;45.00
17399;DHT22;8817;48.170;8.592;2023-02-15T13:18:10;19.10;45.00
17399;DHT22;8817;48.170;8.592;2023-02-15T13:20:39;19.20;44.90
17399;DHT22;8817;48.170;8.592;2023-02-15T13:23:23;19.20;44.90
17399;DHT22;8817;48.170;8.592;2023-02-15T13:25:54;19.30;44.80
17399;DHT22;8817;48.170;8.592;2023-02-15T13:28:24;19.40;44.70
17399;DHT22;8817;48.170;8.592;2023-02-15T13:30:53;19.50;44.50
17399;DHT22;8817;48.170;8.592;2023-02-15T13:33:25;19.60;44.50
17399;DHT22;8817;48.170;8.592;2023-02-15T13:36:02;19.60;44.10
17399;DHT22;8817;48.170;8.592;2023-02-15T13:38:49;19.60;44.00
17399;DHT22;8817;48.170;8.592;2023-02-15T13:41:25;19.70;44.10
17399;DHT22;8817;48.170;8.592;2023-02-15T13:44:02;19.70;44.20
17399;DHT22;8817;48.170;8.592;2023-02-15T13:47:00;19.80;44.20
17399;DHT22;8817;48.170;8.592;2023-02-15T13:49:46;19.80;44.20
17399;DHT22;8817;48.170;8.592;2023-02-15T13:52:20;20.00;44.40
17399;DHT22;8817;48.170;8.592;2023-02-15T13:58:25;20.20;44.40
17399;DHT22;8817;48.170;8.592;2023-02-15T14:01:03;20.30;44.50
17399;DHT22;8817;48.170;8.592;2023-02-15T14:04:01;20.40;44.40
17399;DHT22;8817;48.170;8.592;2023-02-15T14:09:46;20.70;44.50
17399;DHT22;8817;48.170;8.592;2023-02-15T14:12:31;20.90;44.50
17399;DHT22;8817;48.170;8.592;2023-02-15T14:15:20;21.00;44.50
17399;DHT22;8817;48.170;8.592;2023-02-15T14:17:57;21.20;44.40
17399;DHT22;8817;48.170;8.592;2023-02-15T14:20:39;21.40;44.40
17399;DHT22;8817;48.170;8.592;2023-02-15T14:23:14;21.50;44.30
17399;DHT22;8817;48.170;8.592;2023-02-15T14:25:47;21.70;44.20
17399;DHT22;8817;48.170;8.592;2023-02-15T14:28:21;21.90;44.20
17399;DHT22;8817;48.170;8.592;2023-02-15T14:30:56;22.00;44.10
17399;DHT22;8817;48.170;8.592;2023-02-15T14:33:31;22.20;44.10
17399;DHT22;8817;48.170;8.592;2023-02-15T14:35:59;22.30;43.80
17399;DHT22;8817;48.170;8.592;2023-02-15T14:38:38;22.50;43.90
17399;DHT22;8817;48.170;8.592;2023-02-15T14:41:13;22.70;43.60
17399;DHT22;8817;48.170;8.592;2023-02-15T14:43:50;22.90;43.60
17399;DHT22;8817;48.170;8.592;2023-02-15T14:46:26;23.00;43.50
17399;DHT22;8817;48.170;8.592;2023-02-15T14:48:56;23.20;43.40
17399;DHT22;8817;48.170;8.592;2023-02-15T14:51:54;23.40;43.30
17399;DHT22;8817;48.170;8.592;2023-02-15T14:54:53;23.50;43.00
17399;DHT22;8817;48.170;8.592;2023-02-15T14:57:26;23.70;42.90
17399;DHT22;8817;48.170;8.592;2023-02-15T14:59:56;23.80;42.80
17399;DHT22;8817;48.170;8.592;2023-02-15T15:02:26;23.90;42.80
17399;DHT22;8817;48.170;8.592;2023-02-15T15:05:02;24.00;42.70
17399;DHT22;8817;48.170;8.592;2023-02-15T15:07:40;24.20;42.60
17399;DHT22;8817;48.170;8.592;2023-02-15T15:13:37;24.50;42.40
17399;DHT22;8817;48.170;8.592;2023-02-15T15:16:27;24.70;42.40
17399;DHT22;8817;48.170;8.592;2023-02-15T15:18:54;24.90;42.30
17399;DHT22;8817;48.170;8.592;2023-02-15T15:21:52;25.10;42.20
17399;DHT22;8817;48.170;8.592;2023-02-15T15:24:49;25.20;41.70
17399;DHT22;8817;48.170;8.592;2023-02-15T15:30:49;25.40;41.30
17399;DHT22;8817;48.170;8.592;2023-02-15T15:42:21;25.80;41.10
17399;DHT22;8817;48.170;8.592;2023-02-15T15:48:30;26.00;41.00
17399;DHT22;8817;48.170;8.592;2023-02-15T15:51:00;26.20;40.80
17399;DHT22;8817;48.170;8.592;2023-02-15T15:53:29;26.30;40.50
17399;DHT22;8817;48.170;8.592;2023-02-15T15:56:03;26.30;40.20
17399;DHT22;8817;48.170;8.592;2023-02-15T15:58:33;26.40;39.70
17399;DHT22;8817;48.170;8.592;2023-02-15T16:01:04;26.40;39.40
17399;DHT22;8817;48.170;8.592;2023-02-15T16:03:33;26.40;39.10
17399;DHT22;8817;48.170;8.592;2023-02-15T16:06:01;26.30;39.00
17399;DHT22;8817;48.170;8.592;2023-02-15T16:08:30;26.20;38.80
17399;DHT22;8817;48.170;8.592;2023-02-15T16:11:00;26.10;38.40
17399;DHT22;8817;48.170;8.592;2023-02-15T16:13:28;26.00;38.00
17399;DHT22;8817;48.170;8.592;2023-02-15T16:15:56;25.90;37.80
17399;DHT22;8817;48.170;8.592;2023-02-15T16:18:24;25.80;37.70
17399;DHT22;8817;48.170;8.592;2023-02-15T16:20:54;25.60;37.50
17399;DHT22;8817;48.170;8.592;2023-02-15T16:26:48;25.20;36.90
17399;DHT22;8817;48.170;8.592;2023-02-15T16:29:27;24.80;36.70
17399;DHT22;8817;48.170;8.592;2023-02-15T16:31:59;24.50;36.30
17399;DHT22;8817;48.170;8.592;2023-02-15T16:34:27;24.10;36.10
17399;DHT22;8817;48.170;8.592;2023-02-15T16:37:12;23.80;36.00
17399;DHT22;8817;48.170;8.592;2023-02-15T16:39:41;23.30;36.00
17399;DHT22;8817;48.170;8.592;2023-02-15T16:42:11;23.00;35.90
17399;DHT22;8817;48.170;8.592;2023-02-15T16:44:39;22.60;35.90
17399;DHT22;8817;48.170;8.592;2023-02-15T16:47:14;22.20;35.80
17399;DHT22;8817;48.170;8.592;2023-02-15T16:49:45;21.80;35.70
17399;DHT22;8817;48.170;8.592;2023-02-15T16:52:18;21.50;35.70
17399;DHT22;8817;48.170;8.592;2023-02-15T16:54:46;21.10;35.70
17399;DHT22;8817;48.170;8.592;2023-02-15T16:57:19;20.80;35.70
17399;DHT22;8817;48.170;8.592;2023-02-15T16:59:49;20.40;35.70
17399;DHT22;8817;48.170;8.592;2023-02-15T17:02:19;20.10;35.70